Time;durP1;ratioP1;P1;durP2;ratioP2;P2;SDS_P1;SDS_P2;PMS_P1;PMS_P2;Temp;Humidity;BMP_temperature;BMP_pressure;BME280_temperature;BME280_humidity;BME280_pressure;Samples;Min_cycle;Max_cycle;Signal;HPM_P1;HPM_P2
2022/01/20 00:02:08;;;;;;;9.57;8.10;;;2.60;99.90;;;;;;5086467;28;20246;-86
2022/01/20 00:07:44;;;;;;;9.17;7.40;;;2.60;99.90;;;;;;5088069;28;20203;-86
2022/01/20 00:26:21;;;;;;;8.97;6.90;;;2.60;99.90;;;;;;5109835;28;20232;-86
2022/01/20 00:28:48;;;;;;;8.80;7.90;;;2.60;99.90;;;;;;5101460;28;20202;-86
2022/01/20 00:33:47;;;;;;;7.83;6.77;;;2.50;99.90;;;;;;5087500;28;20186;-87
2022/01/20 00:38:45;;;;;;;10.20;8.43;;;2.60;99.90;;;;;;5101586;28;20234;-86
2022/01/20 00:41:15;;;;;;;8.67;7.63;;;2.50;99.90;;;;;;5105733;28;20194;-86
2022/01/20 00:43:44;;;;;;;10.23;7.67;;;2.50;99.90;;;;;;5091901;28;20210;-86
2022/01/20 00:46:11;;;;;;;9.93;7.70;;;2.60;99.90;;;;;;5100165;28;20175;-86
2022/01/20 00:48:36;;;;;;;9.57;7.50;;;2.50;99.90;;;;;;5089417;28;20222;-86
2022/01/20 00:51:03;;;;;;;8.07;7.27;;;2.50;99.90;;;;;;5113938;28;20182;-86
2022/01/20 00:53:29;;;;;;;10.23;7.50;;;2.60;99.90;;;;;;5094690;28;20315;-87
2022/01/20 00:55:55;;;;;;;8.03;7.13;;;2.60;99.90;;;;;;5083328;28;20708;-86
2022/01/20 00:58:21;;;;;;;9.83;7.50;;;2.60;99.90;;;;;;5088624;28;20182;-86
2022/01/20 01:00:47;;;;;;;8.00;7.20;;;2.60;99.90;;;;;;5101108;28;20721;-87
2022/01/20 01:03:13;;;;;;;8.40;7.40;;;2.60;99.90;;;;;;5081317;28;20210;-87
2022/01/20 01:05:51;;;;;;;8.57;7.60;;;2.50;99.90;;;;;;5106230;28;20727;-87
2022/01/20 01:08:17;;;;;;;8.53;7.63;;;2.40;99.90;;;;;;5101706;28;20213;-87
2022/01/20 01:10:45;;;;;;;9.57;7.90;;;2.40;99.90;;;;;;5085261;28;20583;-86
2022/01/20 01:13:14;;;;;;;9.50;8.17;;;2.40;99.90;;;;;;5104097;28;20261;-86
2022/01/20 01:15:44;;;;;;;8.33;7.30;;;2.50;99.90;;;;;;5073788;28;20208;-86
2022/01/20 01:23:32;;;;;;;9.00;7.70;;;2.50;99.90;;;;;;5088022;28;20195;-87
2022/01/20 01:25:59;;;;;;;8.63;7.50;;;2.50;99.90;;;;;;5103698;28;20182;-87
2022/01/20 01:28:28;;;;;;;7.77;6.57;;;2.50;99.90;;;;;;5085118;28;20244;-87
2022/01/20 01:33:49;;;;;;;7.80;6.93;;;2.60;99.90;;;;;;5118243;28;20200;-87
2022/01/20 01:36:18;;;;;;;8.07;7.17;;;2.60;99.90;;;;;;5115377;28;20190;-86
2022/01/20 01:38:44;;;;;;;9.00;6.90;;;2.40;99.90;;;;;;5102682;28;20253;-87
2022/01/20 01:41:13;;;;;;;9.90;7.37;;;2.50;99.90;;;;;;5109517;28;20198;-87
2022/01/20 01:43:43;;;;;;;9.03;7.73;;;2.40;99.90;;;;;;5090977;28;20191;-87
2022/01/20 01:46:11;;;;;;;8.57;7.67;;;2.30;99.90;;;;;;5101743;28;20530;-87
2022/01/20 01:48:41;;;;;;;8.10;7.30;;;2.30;99.90;;;;;;5101005;28;20206;-86
2022/01/20 01:51:08;;;;;;;10.37;8.30;;;2.30;99.90;;;;;;5079847;28;20188;-87
2022/01/20 01:53:34;;;;;;;8.23;6.93;;;2.30;99.90;;;;;;5101413;28;20228;-86
2022/01/20 01:56:03;;;;;;;9.70;7.63;;;2.40;99.90;;;;;;5108028;28;20206;-86
2022/01/20 01:58:29;;;;;;;9.97;7.87;;;2.40;99.90;;;;;;5114785;28;20194;-86
2022/01/20 02:00:56;;;;;;;8.60;7.70;;;2.40;99.90;;;;;;5093007;28;20186;-87
2022/01/20 02:03:23;;;;;;;8.43;6.80;;;2.40;99.90;;;;;;5103142;28;20186;-87
2022/01/20 02:08:31;;;;;;;9.40;7.70;;;2.40;99.90;;;;;;5110649;28;20211;-87
2022/01/20 02:19:14;;;;;;;9.67;7.07;;;2.40;99.90;;;;;;5096381;28;20294;-86
2022/01/20 02:21:52;;;;;;;9.83;7.50;;;2.50;99.90;;;;;;5108397;28;20205;-86
2022/01/20 02:24:18;;;;;;;7.90;7.10;;;2.40;99.90;;;;;;5100167;28;20187;-87
2022/01/20 02:26:44;;;;;;;8.23;7.40;;;2.50;99.90;;;;;;5099679;28;20202;-86
2022/01/20 02:29:11;;;;;;;8.73;7.60;;;2.50;99.90;;;;;;5122682;28;20198;-87
2022/01/20 02:31:36;;;;;;;7.50;6.70;;;2.50;99.90;;;;;;5111636;28;20215;-87
2022/01/20 02:34:02;;;;;;;8.80;7.50;;;2.50;99.90;;;;;;5094650;28;20183;-87
2022/01/20 02:36:29;;;;;;;8.53;6.93;;;2.40;99.90;;;;;;5105804;28;20180;-87
2022/01/20 02:39:01;;;;;;;6.97;5.93;;;2.50;99.90;;;;;;5101856;28;20244;-86
2022/01/20 02:46:55;;;;;;;7.93;6.73;;;2.50;99.90;;;;;;5108667;28;20185;-86
2022/01/20 02:49:21;;;;;;;7.13;5.73;;;2.50;99.90;;;;;;5105282;28;20207;-86
2022/01/20 02:51:53;;;;;;;6.90;6.17;;;2.50;99.90;;;;;;5087308;28;20194;-86
2022/01/20 02:54:19;;;;;;;9.67;6.37;;;2.60;99.90;;;;;;5078283;28;20278;-87
2022/01/20 02:56:45;;;;;;;7.93;6.93;;;2.60;99.90;;;;;;5086302;28;20784;-86
2022/01/20 02:59:11;;;;;;;7.43;6.47;;;2.50;99.90;;;;;;5105097;28;20242;-87
2022/01/20 03:01:37;;;;;;;7.27;6.50;;;2.50;99.90;;;;;;5103551;28;20209;-87
2022/01/20 03:04:03;;;;;;;10.20;7.00;;;2.50;99.90;;;;;;5110757;28;20199;-87
2022/01/20 03:06:29;;;;;;;8.13;6.20;;;2.40;99.90;;;;;;5087580;28;20289;-86
2022/01/20 03:08:55;;;;;;;9.27;6.80;;;2.40;99.90;;;;;;5087930;28;20216;-86
2022/01/20 03:11:21;;;;;;;7.97;6.33;;;2.40;99.90;;;;;;5092722;28;20584;-86
2022/01/20 03:13:46;;;;;;;7.57;6.70;;;2.50;99.90;;;;;;5104414;28;20199;-86
2022/01/20 03:16:12;;;;;;;7.83;6.87;;;2.50;99.90;;;;;;5102112;28;20195;-87
2022/01/20 03:18:38;;;;;;;8.20;6.90;;;2.40;99.90;;;;;;5116455;28;20210;-87
2022/01/20 03:21:04;;;;;;;7.43;6.50;;;2.40;99.90;;;;;;5091343;28;20190;-87
2022/01/20 03:23:30;;;;;;;8.27;6.87;;;2.40;99.90;;;;;;5110424;28;20194;-86
2022/01/20 03:25:55;;;;;;;9.57;7.03;;;2.40;99.90;;;;;;5104071;28;20183;-86
2022/01/20 03:28:21;;;;;;;7.97;6.37;;;2.40;99.90;;;;;;5102874;28;20247;-86
2022/01/20 03:30:47;;;;;;;7.80;6.70;;;2.50;99.90;;;;;;5086064;28;20190;-87
2022/01/20 03:33:12;;;;;;;7.50;6.77;;;2.40;99.90;;;;;;5114475;28;20221;-86
2022/01/20 03:35:40;;;;;;;7.57;6.30;;;2.40;99.90;;;;;;5070199;28;20209;-87
2022/01/20 03:38:06;;;;;;;9.03;7.27;;;2.30;99.90;;;;;;5096787;28;20236;-87
2022/01/20 03:40:31;;;;;;;8.73;7.23;;;2.40;99.90;;;;;;5089086;28;20238;-87
2022/01/20 03:42:57;;;;;;;7.30;6.60;;;2.50;99.90;;;;;;5106322;28;20190;-86
2022/01/20 03:45:26;;;;;;;7.00;6.27;;;2.50;99.90;;;;;;5084827;28;20201;-87
2022/01/20 03:47:55;;;;;;;7.70;6.90;;;2.50;99.90;;;;;;5108972;28;20222;-87
2022/01/20 03:53:06;;;;;;;9.43;7.50;;;2.40;99.90;;;;;;5088165;28;20270;-86
2022/01/20 03:55:32;;;;;;;8.20;7.13;;;2.50;99.90;;;;;;5101292;28;20236;-87
2022/01/20 03:57:58;;;;;;;7.90;7.10;;;2.40;99.90;;;;;;5086090;28;20191;-86
2022/01/20 04:00:23;;;;;;;8.57;7.27;;;2.50;99.90;;;;;;5118211;28;20221;-86
2022/01/20 04:02:49;;;;;;;8.47;7.07;;;2.40;99.90;;;;;;5086376;28;20209;-87
2022/01/20 04:05:15;;;;;;;8.50;7.23;;;2.50;99.90;;;;;;5101344;28;20535;-86
2022/01/20 04:07:41;;;;;;;8.13;7.33;;;2.50;99.90;;;;;;5117298;28;20206;-87
2022/01/20 04:10:07;;;;;;;9.80;7.90;;;2.40;99.90;;;;;;5069085;28;20210;-86
2022/01/20 04:12:32;;;;;;;8.73;7.77;;;2.50;99.90;;;;;;5101218;28;21704;-86
2022/01/20 04:15:05;;;;;;;8.63;7.73;;;2.40;99.90;;;;;;5115736;28;20191;-87
2022/01/20 04:17:31;;;;;;;8.93;7.27;;;2.40;99.90;;;;;;5112724;28;20221;-87
2022/01/20 04:19:57;;;;;;;9.50;8.50;;;2.30;99.90;;;;;;5104299;28;20207;-86
2022/01/20 04:22:24;;;;;;;10.33;8.87;;;2.30;99.90;;;;;;5102275;28;20293;-87
2022/01/20 04:24:50;;;;;;;10.00;8.97;;;2.40;99.90;;;;;;5121362;28;20198;-86
2022/01/20 04:27:16;;;;;;;9.77;8.33;;;2.30;99.90;;;;;;5094314;28;20214;-87
2022/01/20 04:29:42;;;;;;;10.67;9.20;;;2.50;99.90;;;;;;5097429;28;20229;-88
2022/01/20 04:32:07;;;;;;;11.07;8.77;;;2.40;99.90;;;;;;5093074;28;20237;-87
2022/01/20 04:34:33;;;;;;;10.30;8.27;;;2.50;99.90;;;;;;5107897;28;20199;-87
2022/01/20 04:37:02;;;;;;;9.80;8.80;;;2.40;99.90;;;;;;5100836;28;20191;-86
2022/01/20 04:39:31;;;;;;;10.30;9.07;;;2.40;99.90;;;;;;5071963;28;20207;-86
2022/01/20 04:41:57;;;;;;;11.07;9.63;;;2.40;99.90;;;;;;5103849;28;20277;-86
2022/01/20 04:47:13;;;;;;;11.60;9.80;;;2.40;99.90;;;;;;5094121;28;20179;-87
2022/01/20 04:57:52;;;;;;;12.10;9.43;;;2.50;99.90;;;;;;5086409;28;20197;-87
2022/01/20 05:00:18;;;;;;;9.63;8.63;;;2.40;99.90;;;;;;5082529;28;20195;-87
2022/01/20 05:02:44;;;;;;;10.23;9.13;;;2.50;99.90;;;;;;5070341;28;20277;-87
2022/01/20 05:05:09;;;;;;;11.67;9.30;;;2.50;99.90;;;;;;5084722;28;20221;-86
2022/01/20 05:07:36;;;;;;;11.13;8.97;;;2.60;99.90;;;;;;5100992;28;21012;-86
2022/01/20 05:10:06;;;;;;;12.37;9.47;;;2.60;99.90;;;;;;5098859;28;20206;-87
2022/01/20 05:13:22;;;;;;;12.47;9.57;;;2.60;99.90;;;;;;5096887;28;20214;-86
2022/01/20 05:15:19;;;;;;;10.30;9.20;;;2.60;99.90;;;;;;5094238;28;20299;-87
2022/01/20 05:17:44;;;;;;;10.40;8.70;;;2.60;99.90;;;;;;5087241;28;20190;-87
2022/01/20 05:20:10;;;;;;;10.50;9.37;;;2.60;99.90;;;;;;5102041;28;20264;-87
2022/01/20 05:22:36;;;;;;;11.17;9.80;;;2.60;99.90;;;;;;5099040;28;20252;-87
2022/01/20 05:25:03;;;;;;;12.20;9.13;;;2.60;99.90;;;;;;5083022;28;20199;-87
2022/01/20 05:27:29;;;;;;;9.57;8.60;;;2.70;99.90;;;;;;5095545;28;20190;-87
2022/01/20 05:29:55;;;;;;;10.23;8.97;;;2.60;99.90;;;;;;5080926;28;20272;-86
2022/01/20 05:32:22;;;;;;;8.70;7.80;;;2.70;99.90;;;;;;5098522;28;20242;-86
2022/01/20 05:34:48;;;;;;;11.10;9.00;;;2.60;99.90;;;;;;5104056;28;20179;-87
2022/01/20 05:37:14;;;;;;;11.37;8.90;;;2.60;99.90;;;;;;5103768;28;20274;-86
2022/01/20 05:39:40;;;;;;;10.63;9.47;;;2.60;99.90;;;;;;5075692;28;20318;-86
2022/01/20 05:42:07;;;;;;;13.17;9.77;;;2.60;99.90;;;;;;5113690;28;20201;-86
2022/01/20 05:44:33;;;;;;;10.47;9.27;;;2.50;99.90;;;;;;5087716;28;20597;-87
2022/01/20 05:46:59;;;;;;;11.60;9.53;;;2.60;99.90;;;;;;5101865;28;20206;-87
2022/01/20 05:49:24;;;;;;;11.13;9.47;;;2.60;99.90;;;;;;5103063;28;20282;-87
2022/01/20 05:51:52;;;;;;;11.30;9.90;;;2.60;99.90;;;;;;5099976;28;20800;-86
2022/01/20 05:54:19;;;;;;;11.73;10.17;;;2.70;99.90;;;;;;5102402;28;20228;-86
2022/01/20 05:56:45;;;;;;;16.43;10.20;;;2.70;99.90;;;;;;5102114;28;20308;-86
2022/01/20 05:59:11;;;;;;;13.23;10.17;;;2.60;99.90;;;;;;5102834;28;20218;-86
2022/01/20 06:01:38;;;;;;;11.33;9.73;;;2.60;99.90;;;;;;5101616;28;20604;-86
2022/01/20 06:04:09;;;;;;;12.20;10.00;;;2.60;99.90;;;;;;5102296;28;20318;-86
2022/01/20 06:06:36;;;;;;;11.97;9.77;;;2.60;99.90;;;;;;5107737;28;20249;-86
2022/01/20 06:09:05;;;;;;;13.03;10.57;;;2.60;99.90;;;;;;5102164;28;20202;-86
2022/01/20 06:11:32;;;;;;;12.50;10.13;;;2.60;99.90;;;;;;5087819;28;20196;-86
2022/01/20 06:13:58;;;;;;;11.73;10.47;;;2.60;99.90;;;;;;5083729;28;20206;-86
2022/01/20 06:16:24;;;;;;;12.43;11.10;;;2.60;99.90;;;;;;5115820;28;20190;-86
2022/01/20 06:18:50;;;;;;;12.30;10.47;;;2.60;99.90;;;;;;5106672;28;20207;-87
2022/01/20 06:21:17;;;;;;;12.00;10.33;;;2.70;99.90;;;;;;5103023;28;20213;-86
2022/01/20 06:23:42;;;;;;;11.83;10.27;;;2.70;99.90;;;;;;5080552;28;20187;-86
2022/01/20 06:26:08;;;;;;;11.83;10.10;;;2.70;99.90;;;;;;5101707;28;20199;-86
2022/01/20 06:28:37;;;;;;;13.90;11.00;;;2.70;99.90;;;;;;5101272;28;20214;-86
2022/01/20 06:31:03;;;;;;;14.40;11.67;;;2.70;99.90;;;;;;5083695;28;20668;-86
2022/01/20 06:33:29;;;;;;;13.00;10.43;;;2.70;99.90;;;;;;5093497;28;20215;-86
2022/01/20 06:35:55;;;;;;;14.10;11.87;;;2.60;99.90;;;;;;5084122;28;20709;-86
2022/01/20 06:38:21;;;;;;;13.83;11.30;;;2.60;99.90;;;;;;5104320;28;20187;-87
2022/01/20 06:40:46;;;;;;;14.43;11.97;;;2.70;99.90;;;;;;5085410;28;20195;-86
2022/01/20 06:43:12;;;;;;;14.97;12.33;;;2.60;99.90;;;;;;5105219;28;20255;-86
2022/01/20 06:45:38;;;;;;;14.03;11.90;;;2.70;99.90;;;;;;5105809;28;20198;-86
2022/01/20 06:48:04;;;;;;;14.10;11.43;;;2.60;99.90;;;;;;5086679;28;20221;-86
2022/01/20 06:50:30;;;;;;;14.73;11.13;;;2.60;99.90;;;;;;5100341;28;20228;-86
2022/01/20 06:52:56;;;;;;;13.70;12.27;;;2.60;99.90;;;;;;5099154;28;20270;-86
2022/01/20 06:55:22;;;;;;;13.90;11.27;;;2.60;99.90;;;;;;5085284;28;20214;-86
2022/01/20 06:57:48;;;;;;;13.30;11.33;;;2.60;99.90;;;;;;5109263;28;20202;-86
2022/01/20 07:00:20;;;;;;;13.13;11.23;;;2.60;99.90;;;;;;5093147;28;20226;-86
2022/01/20 07:02:47;;;;;;;15.57;11.57;;;2.70;99.90;;;;;;5109128;28;20187;-86
2022/01/20 07:05:15;;;;;;;12.57;10.27;;;2.80;99.90;;;;;;5092479;28;20276;-86
2022/01/20 07:07:41;;;;;;;11.90;10.47;;;2.80;99.90;;;;;;5107305;28;20254;-87
2022/01/20 07:10:09;;;;;;;14.87;11.67;;;2.80;99.90;;;;;;5118671;28;20214;-86
2022/01/20 07:12:35;;;;;;;15.17;12.30;;;2.70;99.90;;;;;;5114404;28;20231;-87
2022/01/20 07:15:02;;;;;;;16.33;12.10;;;2.70;99.90;;;;;;5106899;28;20200;-87
2022/01/20 07:17:27;;;;;;;14.27;10.60;;;2.70;99.90;;;;;;5107343;28;20216;-86
2022/01/20 07:19:53;;;;;;;13.37;10.77;;;2.70;99.90;;;;;;5087844;28;20496;-86
2022/01/20 07:22:19;;;;;;;13.73;10.87;;;2.70;99.90;;;;;;5102204;28;20195;-86
2022/01/20 07:24:45;;;;;;;12.10;10.90;;;2.70;99.90;;;;;;5065644;28;20563;-87
2022/01/20 07:27:11;;;;;;;15.57;11.60;;;2.70;99.90;;;;;;5102418;28;20199;-86
2022/01/20 07:29:36;;;;;;;13.87;11.03;;;2.60;99.90;;;;;;5082320;28;20226;-86
2022/01/20 07:32:03;;;;;;;14.87;10.83;;;2.60;99.90;;;;;;5083576;28;20219;-86
2022/01/20 07:34:34;;;;;;;13.30;11.33;;;2.70;99.90;;;;;;5100164;28;20179;-86
2022/01/20 07:37:00;;;;;;;13.43;11.23;;;2.70;99.90;;;;;;5093892;28;20236;-87
2022/01/20 07:39:27;;;;;;;12.90;10.03;;;2.70;99.90;;;;;;5080576;28;20279;-86
2022/01/20 07:41:53;;;;;;;12.87;10.07;;;2.70;99.90;;;;;;5098493;28;20187;-87
2022/01/20 07:44:19;;;;;;;12.37;10.60;;;2.80;99.90;;;;;;5104962;28;20209;-86
2022/01/20 07:46:46;;;;;;;17.90;11.47;;;2.70;99.90;;;;;;5083187;28;20194;-87
2022/01/20 07:49:12;;;;;;;12.33;10.90;;;2.70;99.90;;;;;;5106212;28;20251;-87
2022/01/20 07:51:38;;;;;;;14.53;10.27;;;2.80;99.90;;;;;;5099216;28;20184;-86
2022/01/20 07:54:04;;;;;;;12.13;9.90;;;2.80;99.90;;;;;;5105965;28;20235;-87
2022/01/20 07:56:30;;;;;;;13.30;10.00;;;2.90;99.90;;;;;;5099429;28;20266;-86
2022/01/20 07:58:56;;;;;;;11.00;9.80;;;2.80;99.90;;;;;;5098954;28;20216;-86
2022/01/20 08:01:26;;;;;;;10.83;9.73;;;2.80;99.90;;;;;;5103142;28;20679;-87
2022/01/20 08:03:52;;;;;;;16.70;10.40;;;2.80;99.90;;;;;;5083698;28;20198;-87
2022/01/20 08:06:22;;;;;;;13.30;10.70;;;2.70;99.90;;;;;;5101256;28;20186;-87
2022/01/20 08:08:50;;;;;;;15.90;12.13;;;2.70;99.90;;;;;;5077641;28;20191;-86
2022/01/20 08:11:20;;;;;;;13.33;11.43;;;2.70;99.90;;;;;;5100431;28;20187;-86
2022/01/20 08:13:47;;;;;;;13.63;10.77;;;2.70;99.90;;;;;;5095568;28;20250;-86
2022/01/20 08:16:13;;;;;;;14.33;10.57;;;2.70;99.90;;;;;;5097809;28;20187;-87
2022/01/20 08:18:38;;;;;;;13.13;10.30;;;2.70;99.90;;;;;;5065174;28;20220;-87
2022/01/20 08:21:04;;;;;;;13.90;10.03;;;2.80;99.90;;;;;;5083871;28;20723;-87
2022/01/20 08:23:30;;;;;;;12.53;10.87;;;2.80;99.90;;;;;;5079696;28;20195;-86
2022/01/20 08:25:56;;;;;;;14.80;10.43;;;2.70;99.90;;;;;;5080428;28;20194;-86
2022/01/20 08:28:23;;;;;;;12.27;10.10;;;2.70;99.90;;;;;;5098031;28;20263;-87
2022/01/20 08:30:51;;;;;;;13.27;10.10;;;2.90;99.90;;;;;;5082619;28;20223;-86
2022/01/20 08:33:17;;;;;;;13.60;9.70;;;2.80;99.90;;;;;;5101759;28;20211;-86
2022/01/20 08:35:43;;;;;;;13.10;10.07;;;2.90;99.90;;;;;;5103306;28;20268;-87
2022/01/20 08:38:09;;;;;;;14.20;10.20;;;2.90;99.90;;;;;;5095268;28;20179;-86
2022/01/20 08:40:36;;;;;;;15.73;10.77;;;2.90;99.90;;;;;;5096107;28;20210;-87
2022/01/20 08:43:03;;;;;;;16.97;11.40;;;2.90;99.90;;;;;;5094729;28;20292;-87
2022/01/20 08:45:31;;;;;;;11.93;10.20;;;2.90;99.90;;;;;;5099964;28;20183;-86
2022/01/20 08:47:57;;;;;;;14.87;10.33;;;2.90;99.90;;;;;;5098169;28;20196;-86
2022/01/20 08:50:26;;;;;;;13.47;10.93;;;2.90;99.90;;;;;;5094048;28;20244;-86
2022/01/20 08:52:52;;;;;;;13.43;9.97;;;2.90;99.90;;;;;;5100252;28;20210;-86
2022/01/20 08:55:18;;;;;;;12.47;9.30;;;3.10;99.90;;;;;;5087808;28;20204;-87
2022/01/20 08:57:45;;;;;;;11.73;8.57;;;3.20;99.90;;;;;;5111306;28;20187;-86
2022/01/20 09:00:13;;;;;;;13.30;9.73;;;3.20;99.90;;;;;;5110620;28;20226;-87
2022/01/20 09:02:39;;;;;;;12.73;9.33;;;3.20;99.90;;;;;;5088032;28;20187;-86
2022/01/20 09:05:05;;;;;;;13.07;9.20;;;3.30;99.90;;;;;;5099447;28;20195;-87
2022/01/20 09:07:31;;;;;;;14.90;9.87;;;3.30;99.90;;;;;;5101463;28;20187;-86
2022/01/20 09:09:59;;;;;;;14.00;9.60;;;3.20;99.90;;;;;;5108860;28;20245;-86
2022/01/20 09:17:42;;;;;;;13.57;9.40;;;3.30;99.90;;;;;;5110006;28;20201;-87
2022/01/20 09:20:09;;;;;;;13.00;8.87;;;3.40;99.90;;;;;;5093227;28;20207;-86
2022/01/20 09:22:35;;;;;;;13.20;9.50;;;3.50;99.90;;;;;;5099533;28;20198;-86
2022/01/20 09:25:01;;;;;;;11.57;9.10;;;3.60;99.90;;;;;;5078877;28;20840;-86
2022/01/20 09:27:27;;;;;;;13.50;9.63;;;3.60;99.90;;;;;;5094204;28;20199;-86
2022/01/20 09:29:53;;;;;;;15.20;8.97;;;3.50;99.90;;;;;;5076602;28;20215;-86
2022/01/20 09:32:20;;;;;;;14.07;9.33;;;3.50;99.90;;;;;;5096829;28;20271;-86
2022/01/20 09:34:46;;;;;;;15.13;8.97;;;3.60;99.90;;;;;;5088190;28;20199;-86
2022/01/20 09:37:12;;;;;;;14.13;9.50;;;3.50;99.90;;;;;;5103611;28;20218;-87
2022/01/20 09:39:40;;;;;;;17.20;11.10;;;3.50;99.90;;;;;;5108893;28;20315;-87
2022/01/20 09:42:06;;;;;;;12.67;9.03;;;3.50;99.90;;;;;;5089466;28;20198;-86
2022/01/20 09:44:34;;;;;;;14.57;9.73;;;3.60;99.90;;;;;;5106836;28;20176;-87
2022/01/20 09:47:00;;;;;;;14.53;9.43;;;3.60;99.90;;;;;;5073080;28;20191;-87
2022/01/20 09:49:26;;;;;;;17.10;9.93;;;3.60;99.90;;;;;;5110046;28;20198;-86
2022/01/20 09:51:51;;;;;;;14.00;9.53;;;3.60;99.90;;;;;;5111677;28;20282;-86
2022/01/20 09:54:18;;;;;;;16.37;9.80;;;3.60;99.90;;;;;;5089016;28;20274;-86
2022/01/20 09:56:44;;;;;;;19.80;11.13;;;3.50;99.90;;;;;;5089851;28;20179;-86
2022/01/20 09:59:12;;;;;;;11.57;9.50;;;3.50;99.90;;;;;;5086302;28;20284;-87
2022/01/20 10:01:50;;;;;;;12.37;10.07;;;3.60;99.90;;;;;;5084800;28;20187;-86
2022/01/20 10:04:21;;;;;;;14.03;9.67;;;3.60;99.90;;;;;;5100324;28;20192;-86
2022/01/20 10:07:11;;;;;;;18.20;9.23;;;3.60;99.90;;;;;;5083174;28;20653;-86
2022/01/20 10:09:45;;;;;;;12.40;8.80;;;3.70;99.90;;;;;;5095026;28;20222;-86
2022/01/20 10:12:14;;;;;;;13.63;9.70;;;3.70;99.90;;;;;;5098399;28;20210;-86
2022/01/20 10:14:47;;;;;;;17.00;9.03;;;3.70;99.90;;;;;;5093823;28;20215;-86
2022/01/20 10:17:25;;;;;;;19.57;10.27;;;3.80;99.90;;;;;;5089757;28;20279;-86
2022/01/20 10:20:00;;;;;;;12.30;9.07;;;3.70;99.90;;;;;;5081436;28;20229;-86
2022/01/20 10:22:27;;;;;;;18.23;8.67;;;3.70;99.90;;;;;;5094482;28;20179;-86
2022/01/20 10:25:08;;;;;;;17.43;9.33;;;3.80;99.90;;;;;;5073682;28;20194;-86
2022/01/20 10:27:48;;;;;;;12.03;8.97;;;3.90;99.90;;;;;;5097548;28;20187;-86
2022/01/20 10:30:15;;;;;;;14.60;8.90;;;3.90;99.90;;;;;;5092921;28;20230;-86
2022/01/20 10:32:45;;;;;;;18.20;9.60;;;3.90;99.90;;;;;;5098212;28;20611;-86
2022/01/20 10:35:14;;;;;;;14.17;9.30;;;3.80;99.90;;;;;;5076552;28;20530;-86
2022/01/20 10:37:41;;;;;;;13.53;9.13;;;3.80;99.90;;;;;;5094847;28;20195;-86
2022/01/20 10:40:15;;;;;;;13.67;8.77;;;3.90;99.90;;;;;;5099147;28;20231;-86
2022/01/20 10:42:44;;;;;;;15.90;9.20;;;4.00;99.90;;;;;;5079564;28;20206;-86
2022/01/20 10:45:28;;;;;;;12.23;9.53;;;4.10;99.90;;;;;;5079884;28;20194;-86
2022/01/20 10:47:59;;;;;;;14.07;9.53;;;4.10;99.90;;;;;;5078566;28;20599;-86
2022/01/20 10:50:28;;;;;;;17.67;10.27;;;4.00;99.90;;;;;;5099149;28;20211;-86
2022/01/20 10:52:54;;;;;;;19.73;10.13;;;3.90;99.90;;;;;;5102062;28;20218;-86
2022/01/20 10:55:29;;;;;;;14.60;9.63;;;3.80;99.90;;;;;;5079624;28;20190;-86
2022/01/20 10:57:56;;;;;;;19.63;10.10;;;4.00;99.90;;;;;;5086123;28;20231;-86
2022/01/20 11:00:25;;;;;;;17.03;10.00;;;3.90;99.90;;;;;;5086149;28;20210;-86
2022/01/20 11:02:57;;;;;;;17.27;10.23;;;3.90;99.90;;;;;;5098113;28;20416;-86
2022/01/20 11:05:24;;;;;;;18.10;10.13;;;4.00;99.90;;;;;;5098422;28;20183;-86
2022/01/20 11:07:51;;;;;;;16.53;9.27;;;4.10;99.90;;;;;;5080104;28;20221;-86
2022/01/20 11:10:18;;;;;;;15.73;8.70;;;4.10;99.90;;;;;;5097223;28;20229;-86
2022/01/20 11:12:44;;;;;;;12.93;8.47;;;4.30;99.90;;;;;;5097552;28;20202;-85
2022/01/20 11:15:14;;;;;;;14.47;8.43;;;4.30;99.90;;;;;;5099083;28;20261;-86
2022/01/20 11:17:42;;;;;;;13.03;8.70;;;4.30;99.90;;;;;;5097242;28;20339;-86
2022/01/20 11:20:15;;;;;;;16.63;9.13;;;4.30;99.90;;;;;;5093831;28;20214;-86
2022/01/20 11:22:55;;;;;;;17.73;8.53;;;4.30;99.90;;;;;;5102535;28;20198;-86
2022/01/20 11:25:23;;;;;;;13.97;8.57;;;4.30;99.90;;;;;;5082288;28;20203;-86
2022/01/20 11:28:00;;;;;;;16.93;8.77;;;4.30;99.90;;;;;;5076106;28;20217;-86
2022/01/20 11:30:29;;;;;;;12.00;8.37;;;4.30;99.90;;;;;;5095767;28;20234;-86
2022/01/20 11:33:05;;;;;;;12.63;8.83;;;4.30;99.90;;;;;;5096904;28;20200;-85
2022/01/20 11:35:43;;;;;;;14.37;7.37;;;4.40;99.90;;;;;;5099776;28;20189;-86
2022/01/20 11:38:11;;;;;;;13.77;7.83;;;4.30;99.90;;;;;;5095778;28;20183;-86
2022/01/20 11:40:50;;;;;;;14.10;8.77;;;4.20;99.90;;;;;;5080997;28;20215;-86
2022/01/20 11:43:16;;;;;;;12.90;8.73;;;4.20;99.90;;;;;;5094001;28;20194;-86
2022/01/20 11:45:50;;;;;;;14.70;8.70;;;4.30;99.90;;;;;;5099165;28;20217;-87
2022/01/20 11:48:19;;;;;;;14.60;8.23;;;4.60;99.90;;;;;;5095369;28;20219;-86
2022/01/20 11:50:47;;;;;;;11.80;6.63;;;5.10;99.90;;;;;;5097668;28;20195;-86
2022/01/20 11:53:17;;;;;;;13.80;7.53;;;5.50;99.90;;;;;;5096426;28;20216;-86
2022/01/20 11:55:50;;;;;;;17.00;7.67;;;5.80;99.90;;;;;;5097726;28;20202;-87
2022/01/20 11:58:20;;;;;;;16.47;7.73;;;6.10;99.90;;;;;;5081857;28;20194;-88
2022/01/20 12:01:08;;;;;;;12.30;7.63;;;6.40;99.90;;;;;;5097118;28;20179;-86
2022/01/20 12:03:36;;;;;;;11.07;6.93;;;6.50;99.90;;;;;;5099897;28;20191;-86
2022/01/20 12:06:07;;;;;;;13.00;6.87;;;6.20;99.90;;;;;;5097248;28;20192;-87
2022/01/20 12:08:33;;;;;;;9.43;6.07;;;6.10;99.90;;;;;;5082099;28;20658;-86
2022/01/20 12:11:08;;;;;;;2.80;2.50;;;5.90;99.90;;;;;;5099735;28;20198;-86
2022/01/20 12:13:45;;;;;;;4.47;2.80;;;5.40;97.80;;;;;;5100828;28;20214;-86
2022/01/20 12:16:21;;;;;;;4.33;3.37;;;4.80;99.20;;;;;;5101105;28;20195;-87
2022/01/20 12:18:55;;;;;;;3.23;2.30;;;4.50;99.90;;;;;;5107387;28;20254;-86
2022/01/20 12:21:23;;;;;;;7.10;4.40;;;4.10;99.90;;;;;;5099598;28;20192;-87
2022/01/20 12:23:51;;;;;;;5.43;3.30;;;4.00;99.90;;;;;;5104126;28;20183;-86
2022/01/20 12:26:17;;;;;;;2.07;1.60;;;3.90;99.90;;;;;;5101044;28;20191;-86
2022/01/20 12:28:42;;;;;;;4.00;2.03;;;3.80;99.90;;;;;;5090947;28;20248;-85
2022/01/20 12:31:09;;;;;;;3.53;1.90;;;3.70;99.90;;;;;;5073954;28;20199;-86
2022/01/20 12:33:41;;;;;;;2.53;1.63;;;3.70;99.90;;;;;;5092550;28;20221;-85
2022/01/20 12:36:13;;;;;;;2.17;1.97;;;3.80;99.90;;;;;;5093779;28;20650;-85
2022/01/20 12:38:39;;;;;;;4.37;2.07;;;3.60;99.90;;;;;;5073457;28;20203;-87
2022/01/20 12:41:12;;;;;;;3.03;1.70;;;3.60;99.90;;;;;;5099844;28;20194;-86
2022/01/20 12:43:37;;;;;;;3.10;2.23;;;3.70;99.90;;;;;;5096652;28;20190;-86
2022/01/20 12:46:04;;;;;;;2.93;1.87;;;3.60;99.90;;;;;;5075803;28;20237;-85
2022/01/20 12:48:30;;;;;;;4.50;1.80;;;3.60;99.90;;;;;;5095299;28;20192;-85
2022/01/20 12:51:06;;;;;;;4.50;2.23;;;3.50;99.90;;;;;;5094005;28;20215;-85
2022/01/20 12:53:44;;;;;;;7.07;2.30;;;3.40;99.90;;;;;;5092960;28;20498;-85
2022/01/20 12:56:13;;;;;;;7.30;2.57;;;3.60;99.90;;;;;;5087064;28;20218;-85
2022/01/20 12:58:49;;;;;;;4.00;1.73;;;3.60;99.90;;;;;;5086670;28;20210;-85
2022/01/20 13:01:15;;;;;;;3.27;1.90;;;3.70;99.90;;;;;;5090357;28;20190;-86
2022/01/20 13:03:41;;;;;;;6.47;2.40;;;3.70;99.90;;;;;;5090759;28;20190;-85
2022/01/20 13:06:11;;;;;;;3.63;2.10;;;3.70;99.90;;;;;;5090568;28;20203;-86
2022/01/20 13:08:41;;;;;;;6.67;4.57;;;3.80;99.90;;;;;;5070844;28;20207;-86
2022/01/20 13:11:12;;;;;;;3.70;2.53;;;3.90;99.90;;;;;;5091260;28;20195;-85
2022/01/20 13:13:38;;;;;;;4.40;2.40;;;4.00;99.90;;;;;;5086736;28;20225;-85
2022/01/20 13:16:15;;;;;;;4.40;2.10;;;4.00;99.90;;;;;;5093672;28;20215;-85
2022/01/20 13:19:01;;;;;;;4.07;2.77;;;3.90;99.90;;;;;;5093740;28;20258;-86
2022/01/20 13:21:52;;;;;;;3.33;2.37;;;3.90;99.90;;;;;;5092216;28;20187;-85
2022/01/20 13:24:26;;;;;;;5.27;2.47;;;3.90;99.90;;;;;;5074276;28;20195;-85
2022/01/20 13:26:53;;;;;;;3.87;2.10;;;3.80;99.90;;;;;;5091444;28;20218;-85
2022/01/20 13:29:21;;;;;;;4.03;2.30;;;3.90;99.90;;;;;;5073988;28;20230;-86
2022/01/20 13:31:54;;;;;;;4.30;2.40;;;4.00;99.90;;;;;;5090934;28;20222;-85
2022/01/20 13:34:20;;;;;;;3.23;2.10;;;4.00;99.90;;;;;;5094194;28;20184;-85
2022/01/20 13:36:52;;;;;;;3.37;2.30;;;4.00;99.90;;;;;;5090220;28;20195;-86
2022/01/20 13:39:35;;;;;;;4.10;2.30;;;4.00;99.90;;;;;;5092583;28;20246;-85
2022/01/20 13:45:13;;;;;;;2.53;1.97;;;3.90;99.90;;;;;;5060912;28;20207;-85
2022/01/20 13:48:05;;;;;;;4.53;2.10;;;3.80;99.90;;;;;;5098539;28;20195;-85
2022/01/20 13:50:43;;;;;;;5.00;2.40;;;3.80;99.90;;;;;;5092134;28;20238;-85
2022/01/20 13:53:16;;;;;;;4.17;2.23;;;3.90;99.90;;;;;;5093853;28;20803;-85
2022/01/20 13:55:44;;;;;;;3.60;2.33;;;3.70;99.90;;;;;;5096343;28;20245;-85
2022/01/20 13:58:24;;;;;;;3.27;2.30;;;3.60;99.90;;;;;;5097439;28;20183;-85
2022/01/20 14:00:51;;;;;;;7.23;3.07;;;3.60;99.90;;;;;;5081197;28;20187;-86
2022/01/20 14:03:16;;;;;;;6.70;3.17;;;3.60;99.90;;;;;;5074560;28;20652;-85
2022/01/20 14:05:44;;;;;;;5.40;3.10;;;3.40;99.90;;;;;;5095710;28;20231;-86